Time;durP1;ratioP1;P1;durP2;ratioP2;P2;SDS_P1;SDS_P2;PMS_P1;PMS_P2;Temp;Humidity;BMP_temperature;BMP_pressure;BME280_temperature;BME280_humidity;BME280_pressure;Samples;Min_cycle;Max_cycle;Signal;HPM_P1;HPM_P2
2023/01/21 00:00:53;;;;;;;;;16.00;12.00;;;;;-0.94;100.00;98095.56;4970751;28;102366;-72
2023/01/21 00:03:20;;;;;;;;;15.00;13.33;;;;;-0.94;100.00;98092.91;4956283;28;102081;-73
2023/01/21 00:05:47;;;;;;;;;11.33;9.00;;;;;-0.89;100.00;98108.41;4974279;28;102256;-72
2023/01/21 00:08:14;;;;;;;;;15.00;11.67;;;;;-0.90;100.00;98090.78;4970104;28;104790;-72
2023/01/21 00:10:41;;;;;;;;;9.00;9.00;;;;;-0.92;100.00;98095.41;4972153;28;102216;-73
2023/01/21 00:13:08;;;;;;;;;9.00;8.67;;;;;-0.96;100.00;98084.25;4960987;28;102267;-71
2023/01/21 00:15:35;;;;;;;;;9.00;8.00;;;;;-0.94;100.00;98082.28;4960430;28;101987;-72
2023/01/21 00:18:02;;;;;;;;;12.00;9.00;;;;;-0.86;100.00;98091.38;4957022;28;104176;-72
2023/01/21 00:20:29;;;;;;;;;12.67;11.67;;;;;-0.90;100.00;98098.75;4956988;28;103924;-71
2023/01/21 00:22:56;;;;;;;;;11.00;9.00;;;;;-0.92;100.00;98104.22;4959596;28;102358;-73
2023/01/21 00:25:23;;;;;;;;;18.00;14.33;;;;;-0.88;100.00;98106.59;4965264;27;102268;-72
2023/01/21 00:27:50;;;;;;;;;11.33;9.67;;;;;-0.91;100.00;98103.25;4968252;28;104021;-72
2023/01/21 00:30:17;;;;;;;;;17.00;15.33;;;;;-0.88;100.00;98106.59;4971282;28;102224;-72
2023/01/21 00:32:45;;;;;;;;;20.33;12.67;;;;;-0.87;100.00;98100.31;4970019;28;102415;-72
2023/01/21 00:35:15;;;;;;;;;14.33;10.33;;;;;-0.82;100.00;98106.03;4974757;28;102037;-72
2023/01/21 00:37:41;;;;;;;;;8.33;8.00;;;;;-0.79;100.00;98116.34;4970687;28;103988;-72
2023/01/21 00:40:09;;;;;;;;;14.00;8.33;;;;;-0.78;100.00;98116.22;4964771;28;106843;-72
2023/01/21 00:42:36;;;;;;;;;8.67;8.67;;;;;-0.76;100.00;98119.56;4971148;28;104265;-71
2023/01/21 00:45:03;;;;;;;;;15.33;11.33;;;;;-0.78;100.00;98115.38;4971532;28;102307;-72
2023/01/21 00:47:31;;;;;;;;;11.00;9.67;;;;;-0.75;100.00;98128.34;4965622;28;103902;-71
2023/01/21 00:49:57;;;;;;;;;8.67;8.00;;;;;-0.77;100.00;98117.91;4962482;28;102103;-71
2023/01/21 00:52:24;;;;;;;;;14.67;12.00;;;;;-0.78;100.00;98128.66;4961038;28;102522;-72
2023/01/21 00:54:52;;;;;;;;;15.67;12.00;;;;;-0.76;100.00;98134.63;4969087;28;102520;-72
2023/01/21 00:57:19;;;;;;;;;21.67;15.67;;;;;-0.78;100.00;98139.25;4954109;28;103999;-72
2023/01/21 00:59:46;;;;;;;;;13.00;11.33;;;;;-0.74;100.00;98136.19;4958750;28;102174;-72
2023/01/21 01:02:13;;;;;;;;;14.00;11.67;;;;;-0.70;100.00;98136.72;4965441;28;101963;-72
2023/01/21 01:04:40;;;;;;;;;15.33;11.33;;;;;-0.69;100.00;98144.56;4967661;28;102303;-72
2023/01/21 01:07:07;;;;;;;;;8.67;8.00;;;;;-0.63;100.00;98143.16;4966702;28;103983;-72
2023/01/21 01:09:34;;;;;;;;;16.33;11.00;;;;;-0.69;100.00;98138.41;4959620;28;103917;-73
2023/01/21 01:12:01;;;;;;;;;17.67;14.00;;;;;-0.81;100.00;98135.06;4968888;28;102087;-72
2023/01/21 01:14:28;;;;;;;;;17.00;16.00;;;;;-0.99;100.00;98111.06;4963277;28;102230;-72
2023/01/21 01:16:55;;;;;;;;;19.00;15.33;;;;;-0.77;100.00;98139.13;4953878;28;104439;-71
2023/01/21 01:19:22;;;;;;;;;21.00;13.00;;;;;-0.80;100.00;98142.03;4945448;28;104758;-72
2023/01/21 01:21:49;;;;;;;;;14.67;11.67;;;;;-0.76;100.00;98142.59;4957681;28;103022;-74
2023/01/21 01:24:16;;;;;;;;;23.00;18.00;;;;;-0.78;100.00;98142.75;4971087;28;102465;-74
2023/01/21 01:26:43;;;;;;;;;14.67;11.67;;;;;-0.69;100.00;98143.72;4945979;28;104221;-73
2023/01/21 01:29:12;;;;;;;;;11.67;10.33;;;;;-0.70;100.00;98142.03;4963205;28;102801;-73
2023/01/21 01:31:39;;;;;;;;;7.67;6.33;;;;;-0.64;100.00;98141.47;4963766;28;102148;-73
2023/01/21 01:34:06;;;;;;;;;12.00;7.00;;;;;-0.61;100.00;98151.81;4961583;28;102568;-74
2023/01/21 01:36:33;;;;;;;;;12.00;9.00;;;;;-0.70;100.00;98150.00;4963586;28;105021;-74
2023/01/21 01:39:00;;;;;;;;;13.33;12.33;;;;;-0.74;100.00;98149.47;4961191;28;102426;-73
2023/01/21 01:41:28;;;;;;;;;14.00;9.00;;;;;-0.77;100.00;98147.09;4964044;28;102138;-73
2023/01/21 01:44:04;;;;;;;;;10.33;10.33;;;;;-0.67;100.00;98158.53;4955385;28;102283;-73
2023/01/21 01:46:34;;;;;;;;;9.00;8.00;;;;;-0.72;100.00;98151.97;4951040;28;108840;-72
2023/01/21 01:49:08;;;;;;;;;16.00;11.67;;;;;-0.71;100.00;98153.63;4961082;28;102501;-73
2023/01/21 01:51:40;;;;;;;;;14.33;8.00;;;;;-0.71;100.00;98157.13;4952286;28;104731;-73
2023/01/21 01:54:10;;;;;;;;;16.67;11.00;;;;;-0.72;100.00;98149.31;4952283;28;102248;-73
2023/01/21 01:56:41;;;;;;;;;15.33;11.67;;;;;-0.73;100.00;98147.66;4956033;28;104041;-73
2023/01/21 01:59:08;;;;;;;;;13.67;11.00;;;;;-0.75;100.00;98144.28;4952071;28;102376;-73
2023/01/21 02:01:35;;;;;;;;;15.67;14.67;;;;;-0.81;100.00;98139.56;4943399;28;102946;-74
2023/01/21 02:04:09;;;;;;;;;11.67;11.33;;;;;-0.81;100.00;98140.38;4945879;28;102427;-74
2023/01/21 02:06:37;;;;;;;;;15.00;11.00;;;;;-0.79;100.00;98137.59;4942976;28;104071;-74
2023/01/21 02:09:10;;;;;;;;;13.33;11.67;;;;;-0.84;100.00;98139.81;4964303;28;102227;-74
2023/01/21 02:12:12;;;;;;;;;16.33;11.00;;;;;-0.85;100.00;98131.00;4960586;28;101998;-75
2023/01/21 02:15:06;;;;;;;;;12.67;11.00;;;;;-1.07;100.00;98102.97;4962875;28;101966;-75
2023/01/21 02:18:15;;;;;;;;;13.33;11.00;;;;;-0.85;100.00;98130.19;4961049;28;107488;-77
2023/01/21 02:21:22;;;;;;;;;9.33;8.00;;;;;-0.81;100.00;98135.06;4953708;28;102003;-78
2023/01/21 02:24:27;;;;;;;;;14.33;11.00;;;;;-0.83;100.00;98120.28;4957243;28;102449;-77
2023/01/21 02:27:26;;;;;;;;;12.67;10.33;;;;;-0.89;100.00;98119.00;4967244;28;102468;-76
2023/01/21 02:30:09;;;;;;;;;10.33;9.00;;;;;-0.85;100.00;98127.53;4954020;28;107785;-77
2023/01/21 02:33:12;;;;;;;;;15.33;9.00;;;;;-0.88;100.00;98123.34;4966609;28;101948;-77
2023/01/21 02:35:48;;;;;;;;;13.33;8.33;;;;;-0.93;100.00;98114.97;4957205;28;102273;-77
2023/01/21 02:38:38;;;;;;;;;15.33;11.00;;;;;-0.94;100.00;98114.13;4947606;28;102263;-77
2023/01/21 02:41:35;;;;;;;;;9.67;8.33;;;;;-0.93;100.00;98126.41;4954084;28;108829;-78
2023/01/21 02:44:41;;;;;;;;;12.00;12.00;;;;;-1.06;100.00;98099.34;4953886;28;102163;-78
2023/01/21 02:47:39;;;;;;;;;6.33;6.33;;;;;-0.91;100.00;98107.72;4927694;28;102972;-77
2023/01/21 02:50:14;;;;;;;;;11.33;11.00;;;;;-0.98;100.00;98118.03;4957128;28;102117;-78
2023/01/21 02:52:41;;;;;;;;;14.67;11.33;;;;;-0.98;100.00;98118.03;4969963;28;104401;-77
2023/01/21 02:55:14;;;;;;;;;11.33;9.33;;;;;-0.91;100.00;98111.22;4968987;28;101945;-77
2023/01/21 02:57:47;;;;;;;;;13.33;9.00;;;;;-0.96;100.00;98116.09;4954537;28;102277;-77
2023/01/21 03:00:26;;;;;;;;;11.67;8.33;;;;;-0.93;100.00;98113.16;4969938;28;102442;-78
2023/01/21 03:03:19;;;;;;;;;16.00;11.00;;;;;-0.89;100.00;98124.31;4961294;28;103951;-78
2023/01/21 03:05:52;;;;;;;;;11.00;9.00;;;;;-0.90;100.00;98120.81;4964070;28;102111;-78
2023/01/21 03:08:22;;;;;;;;;9.67;9.67;;;;;-0.89;100.00;98121.66;4970468;28;102515;-75
2023/01/21 03:11:07;;;;;;;;;12.67;9.67;;;;;-0.87;100.00;98125.03;4970651;28;102430;-75
2023/01/21 03:16:58;;;;;;;;;13.33;11.00;;;;;-0.86;100.00;98123.22;4969399;28;102250;-74
2023/01/21 03:19:38;;;;;;;;;11.00;8.33;;;;;-0.90;100.00;98125.28;4945859;28;102259;-75
2023/01/21 03:22:15;;;;;;;;;10.33;9.33;;;;;-0.91;100.00;98127.13;4953617;28;102385;-75
2023/01/21 03:24:47;;;;;;;;;9.33;7.00;;;;;-0.92;100.00;98128.09;4954910;28;104527;-76
2023/01/21 03:27:16;;;;;;;;;6.33;6.33;;;;;-0.87;100.00;98124.19;4954667;28;102413;-75
2023/01/21 03:29:45;;;;;;;;;10.67;7.67;;;;;-0.98;100.00;98107.44;4950183;28;102458;-75
2023/01/21 03:32:17;;;;;;;;;6.33;6.33;;;;;-0.91;100.00;98115.69;4954456;28;102366;-75
2023/01/21 03:34:49;;;;;;;;;8.00;5.67;;;;;-0.92;100.00;98106.03;4964318;28;104005;-76
2023/01/21 03:37:31;;;;;;;;;11.00;9.00;;;;;-0.96;100.00;98120.56;4967743;28;102055;-75
2023/01/21 03:40:17;;;;;;;;;12.00;8.33;;;;;-0.96;100.00;98125.88;4970101;28;102080;-74
2023/01/21 03:42:46;;;;;;;;;10.67;8.33;;;;;-0.94;100.00;98124.75;4965305;28;102580;-74
2023/01/21 03:45:13;;;;;;;;;8.00;7.00;;;;;-0.97;100.00;98113.56;4951243;28;104293;-74
2023/01/21 03:47:49;;;;;;;;;11.67;7.67;;;;;-0.93;100.00;98121.13;4963427;28;102407;-74
2023/01/21 03:50:21;;;;;;;;;10.00;8.00;;;;;-0.87;100.00;98116.22;4951889;28;102010;-74
2023/01/21 03:52:48;;;;;;;;;8.33;7.00;;;;;-0.91;100.00;98119.16;4955516;28;102039;-74
2023/01/21 03:55:16;;;;;;;;;10.00;7.33;;;;;-0.96;100.00;98118.75;4957343;28;103679;-74
2023/01/21 03:57:43;;;;;;;;;9.00;8.67;;;;;-0.94;100.00;98113.28;4949477;28;102394;-74
2023/01/21 04:00:12;;;;;;;;;11.00;8.67;;;;;-0.94;100.00;98116.78;4967087;28;103131;-74
2023/01/21 04:02:39;;;;;;;;;10.00;8.00;;;;;-0.92;100.00;98119.31;4947998;28;102226;-74
2023/01/21 04:05:06;;;;;;;;;11.67;9.00;;;;;-0.96;100.00;98116.09;4951012;28;104544;-74
2023/01/21 04:07:33;;;;;;;;;10.33;8.67;;;;;-0.97;100.00;98122.38;4964229;28;102553;-74
2023/01/21 04:10:00;;;;;;;;;8.00;5.67;;;;;-0.95;100.00;98123.09;4951378;28;102067;-74
2023/01/21 04:12:27;;;;;;;;;9.00;7.00;;;;;-0.92;100.00;98122.78;4968902;28;102022;-75
2023/01/21 04:14:54;;;;;;;;;15.00;9.00;;;;;-0.97;100.00;98116.22;4963243;28;103984;-75
2023/01/21 04:17:21;;;;;;;;;9.00;8.67;;;;;-0.94;100.00;98129.22;4969102;28;102228;-74
2023/01/21 04:19:48;;;;;;;;;17.67;12.00;;;;;-0.96;100.00;98120.56;4962260;28;102485;-75
2023/01/21 04:22:15;;;;;;;;;14.00;11.00;;;;;-0.96;100.00;98115.25;4969784;28;102287;-74
2023/01/21 04:24:41;;;;;;;;;14.67;11.67;;;;;-1.21;100.00;98079.53;4954455;28;102902;-74
2023/01/21 04:27:08;;;;;;;;;16.00;14.67;;;;;-1.21;100.00;98074.22;4948153;28;102259;-76
2023/01/21 04:29:35;;;;;;;;;15.33;13.33;;;;;-0.98;100.00;98125.16;4954778;28;102227;-73
2023/01/21 04:32:03;;;;;;;;;15.00;12.00;;;;;-1.01;100.00;98118.34;4965805;28;102945;-74
2023/01/21 04:34:30;;;;;;;;;14.67;12.00;;;;;-1.09;100.00;98110.25;4967699;28;103961;-74
2023/01/21 04:36:56;;;;;;;;;14.67;11.00;;;;;-1.30;100.00;98085.66;4970032;28;102032;-73
2023/01/21 04:39:23;;;;;;;;;11.67;8.67;;;;;-1.09;100.00;98110.25;4970000;28;101902;-74
2023/01/21 04:41:50;;;;;;;;;14.33;11.67;;;;;-1.10;100.00;98111.22;4958208;28;102243;-74
2023/01/21 04:44:17;;;;;;;;;10.67;8.00;;;;;-1.09;100.00;98112.91;4950283;28;103755;-74
2023/01/21 04:46:44;;;;;;;;;12.00;9.00;;;;;-1.07;100.00;98110.09;4950433;28;102567;-74
2023/01/21 04:49:11;;;;;;;;;18.33;10.33;;;;;-1.10;100.00;98113.03;4942252;28;102179;-75
2023/01/21 04:51:38;;;;;;;;;13.00;9.33;;;;;-1.07;100.00;98113.59;4959484;28;102275;-74
2023/01/21 04:54:05;;;;;;;;;12.00;10.33;;;;;-1.15;100.00;98110.81;4970103;28;104101;-73
2023/01/21 04:56:32;;;;;;;;;12.00;11.00;;;;;-1.40;100.00;98084.84;4972225;28;102358;-74
2023/01/21 04:58:59;;;;;;;;;10.67;9.33;;;;;-1.13;100.00;98106.19;4972078;28;102049;-74
2023/01/21 05:01:26;;;;;;;;;14.00;11.00;;;;;-1.14;100.00;98106.34;4971612;28;102319;-73
2023/01/21 05:03:53;;;;;;;;;9.00;8.00;;;;;-1.20;100.00;98102.41;4966114;28;104255;-74
2023/01/21 05:06:20;;;;;;;;;10.33;5.67;;;;;-1.17;100.00;98107.44;4961557;28;102685;-77
2023/01/21 05:08:47;;;;;;;;;8.33;7.33;;;;;-1.16;100.00;98110.94;4966766;28;102502;-75
2023/01/21 05:11:16;;;;;;;;;11.67;9.33;;;;;-1.18;100.00;98116.38;4966007;28;102545;-75
2023/01/21 05:13:43;;;;;;;;;8.67;7.00;;;;;-1.16;100.00;98117.06;4960041;28;104252;-75
2023/01/21 05:16:10;;;;;;;;;9.00;5.00;;;;;-1.16;100.00;98118.88;4969211;28;102626;-75
2023/01/21 05:18:37;;;;;;;;;7.00;7.00;;;;;-1.13;100.00;98127.44;4963974;28;102331;-75
2023/01/21 05:21:05;;;;;;;;;8.67;7.33;;;;;-1.21;100.00;98127.25;4956688;28;101981;-75
2023/01/21 05:23:32;;;;;;;;;8.67;8.00;;;;;-1.20;100.00;98128.94;4957307;28;103998;-75
2023/01/21 05:25:59;;;;;;;;;11.00;7.67;;;;;-1.23;100.00;98123.94;4973027;28;102008;-75
2023/01/21 05:28:26;;;;;;;;;9.00;9.00;;;;;-1.46;100.00;98088.03;4971150;28;105306;-75
2023/01/21 05:30:53;;;;;;;;;12.00;8.67;;;;;-1.25;100.00;98115.25;4974483;28;102442;-76
2023/01/21 05:33:24;;;;;;;;;12.00;9.33;;;;;-1.21;100.00;98119.31;4971983;28;104196;-76
2023/01/21 05:35:51;;;;;;;;;15.00;12.00;;;;;-1.22;100.00;98120.31;4971093;28;102440;-76
2023/01/21 05:38:18;;;;;;;;;8.67;8.67;;;;;-1.32;100.00;98114.16;4970447;28;102407;-74
2023/01/21 05:40:45;;;;;;;;;11.00;9.00;;;;;-1.24;100.00;98121.41;4969840;28;102520;-75
2023/01/21 05:43:12;;;;;;;;;16.00;9.00;;;;;-1.30;100.00;98114.84;4969715;28;104042;-75
2023/01/21 05:45:39;;;;;;;;;14.00;12.00;;;;;-1.29;100.00;98116.50;4972686;28;102353;-74
2023/01/21 05:48:06;;;;;;;;;13.33;9.33;;;;;-1.31;100.00;98117.66;4970673;28;104207;-74
2023/01/21 05:50:33;;;;;;;;;12.00;9.33;;;;;-1.30;100.00;98117.47;4971677;28;102493;-74
2023/01/21 05:53:00;;;;;;;;;13.67;11.67;;;;;-1.36;100.00;98116.25;4963820;28;104213;-75
2023/01/21 05:55:27;;;;;;;;;12.00;9.33;;;;;-1.32;100.00;98111.50;4954327;28;103387;-75
2023/01/21 05:57:54;;;;;;;;;8.67;7.33;;;;;-1.36;100.00;98110.94;4952835;28;102358;-75
2023/01/21 06:00:21;;;;;;;;;14.00;12.00;;;;;-1.47;100.00;98096.97;4952374;28;104830;-75
2023/01/21 06:02:50;;;;;;;;;18.00;9.67;;;;;-1.41;100.00;98114.97;4960185;28;103720;-76
2023/01/21 06:05:16;;;;;;;;;13.33;9.00;;;;;-1.42;100.00;98114.13;4966563;28;103016;-74
2023/01/21 06:07:43;;;;;;;;;14.00;9.00;;;;;-1.40;100.00;98096.25;4969567;28;101982;-75
2023/01/21 06:10:11;;;;;;;;;11.00;11.00;;;;;-1.36;100.00;98104.81;4971715;28;102223;-74
2023/01/21 06:12:38;;;;;;;;;17.67;12.67;;;;;-1.39;100.00;98107.72;4971550;28;104170;-74
2023/01/21 06:15:05;;;;;;;;;16.00;11.67;;;;;-1.44;100.00;98105.47;4970457;28;102504;-74
2023/01/21 06:17:32;;;;;;;;;14.00;12.00;;;;;-1.43;100.00;98111.63;4970336;28;102045;-74
2023/01/21 06:19:59;;;;;;;;;17.00;13.00;;;;;-1.39;100.00;98113.00;4966492;28;101768;-76
2023/01/21 06:22:26;;;;;;;;;12.00;9.33;;;;;-1.35;100.00;98109.09;4963787;28;103988;-75
2023/01/21 06:24:53;;;;;;;;;15.67;12.67;;;;;-1.41;100.00;98112.31;4972113;28;102074;-75
2023/01/21 06:27:20;;;;;;;;;10.33;10.00;;;;;-1.39;100.00;98118.31;4968070;28;102393;-76
2023/01/21 06:29:47;;;;;;;;;12.00;8.00;;;;;-1.39;100.00;98124.47;4963688;28;102265;-76
2023/01/21 06:32:14;;;;;;;;;12.00;11.33;;;;;-1.38;100.00;98123.50;4970784;28;104194;-77
2023/01/21 06:34:41;;;;;;;;;12.33;11.00;;;;;-1.37;100.00;98132.28;4971147;28;102270;-76
2023/01/21 06:37:09;;;;;;;;;11.00;8.00;;;;;-1.33;100.00;98133.69;4971898;28;102222;-76
2023/01/21 06:39:37;;;;;;;;;14.33;11.33;;;;;-1.37;100.00;98137.59;4971863;28;102190;-77
2023/01/21 06:42:04;;;;;;;;;17.33;15.00;;;;;-1.33;100.00;98133.69;4969542;28;104011;-75
2023/01/21 06:44:31;;;;;;;;;14.00;11.33;;;;;-1.31;100.00;98139.69;4962363;28;102237;-77
2023/01/21 06:46:58;;;;;;;;;12.00;9.33;;;;;-1.30;100.00;98137.84;4954282;28;102443;-77
2023/01/21 06:49:27;;;;;;;;;17.33;10.00;;;;;-1.27;100.00;98148.22;4966966;28;102051;-77
2023/01/21 06:51:55;;;;;;;;;9.67;9.00;;;;;-1.21;100.00;98151.13;4970490;28;103764;-77
2023/01/21 06:54:22;;;;;;;;;15.33;12.67;;;;;-1.26;100.00;98145.41;4953026;28;104255;-77
2023/01/21 06:56:49;;;;;;;;;14.67;12.67;;;;;-1.26;100.00;98152.53;4955058;28;102483;-76
2023/01/21 06:59:16;;;;;;;;;16.33;11.33;;;;;-1.26;100.00;98145.41;4960935;28;102554;-77
2023/01/21 07:01:43;;;;;;;;;16.67;12.67;;;;;-1.30;100.00;98149.31;4951634;28;104234;-77
2023/01/21 07:04:10;;;;;;;;;14.00;12.00;;;;;-1.25;100.00;98155.03;4963198;28;103093;-77
2023/01/21 07:06:37;;;;;;;;;17.00;13.33;;;;;-1.21;100.00;98152.94;4971449;28;102154;-76
2023/01/21 07:09:05;;;;;;;;;12.00;10.33;;;;;-1.24;100.00;98159.38;4966969;28;102360;-76
2023/01/21 07:11:33;;;;;;;;;12.33;11.00;;;;;-1.19;100.00;98162.44;4969687;28;103478;-76
2023/01/21 07:14:00;;;;;;;;;14.67;12.67;;;;;-1.22;100.00;98168.03;4965193;28;102555;-77
2023/01/21 07:16:26;;;;;;;;;14.67;11.67;;;;;-1.21;100.00;98174.16;4953426;28;105619;-77
2023/01/21 07:18:53;;;;;;;;;18.67;15.67;;;;;-1.25;100.00;98167.47;4955824;28;102407;-77
2023/01/21 07:21:23;;;;;;;;;15.00;11.67;;;;;-1.21;100.00;98182.97;4967561;27;103629;-78
2023/01/21 07:23:52;;;;;;;;;18.00;13.67;;;;;-1.25;100.00;98173.59;4965591;28;102534;-77
2023/01/21 07:26:19;;;;;;;;;22.00;15.00;;;;;-1.19;100.00;98175.72;4942439;28;102307;-76
2023/01/21 07:28:46;;;;;;;;;17.33;13.33;;;;;-1.23;100.00;98176.97;4964341;28;102146;-74
2023/01/21 07:31:13;;;;;;;;;15.67;12.67;;;;;-1.17;100.00;98171.09;4943571;28;103627;-75
2023/01/21 07:33:40;;;;;;;;;19.00;14.00;;;;;-1.12;100.00;98179.47;4944730;28;102227;-75
2023/01/21 07:36:07;;;;;;;;;11.33;8.00;;;;;-1.13;100.00;98177.81;4966554;28;102324;-75
2023/01/21 07:38:34;;;;;;;;;12.00;9.67;;;;;-1.03;100.00;98183.94;4964334;28;102082;-75
2023/01/21 07:41:01;;;;;;;;;9.00;8.33;;;;;-1.00;100.00;98183.69;4949950;28;104172;-75
2023/01/21 07:43:28;;;;;;;;;12.67;11.67;;;;;-0.96;100.00;98173.63;4968696;28;102291;-76
2023/01/21 07:45:55;;;;;;;;;12.67;11.67;;;;;-0.99;100.00;98179.22;4965078;28;102288;-76
2023/01/21 07:48:25;;;;;;;;;11.00;8.67;;;;;-0.86;100.00;98178.94;4968112;28;102504;-76
2023/01/21 07:50:56;;;;;;;;;11.00;9.33;;;;;-0.81;100.00;98187.31;4965874;28;104005;-76
2023/01/21 07:53:23;;;;;;;;;11.00;8.00;;;;;-0.86;100.00;98185.09;4967793;28;102643;-76
2023/01/21 07:55:50;;;;;;;;;12.00;9.67;;;;;-0.77;100.00;98191.38;4970864;27;102203;-75
2023/01/21 07:58:17;;;;;;;;;14.67;9.00;;;;;-0.71;100.00;98196.09;4970702;28;102375;-75
2023/01/21 08:00:44;;;;;;;;;14.00;12.00;;;;;-0.73;100.00;98200.72;4958906;28;103927;-75
2023/01/21 08:03:11;;;;;;;;;19.67;14.00;;;;;-0.84;100.00;98190.25;4954545;27;102573;-75
2023/01/21 08:05:38;;;;;;;;;17.33;15.33;;;;;-0.74;100.00;98207.00;4951709;28;103589;-76
2023/01/21 08:08:05;;;;;;;;;18.33;14.00;;;;;-0.76;100.00;98207.13;4955152;28;102295;-75
2023/01/21 08:10:32;;;;;;;;;18.00;15.00;;;;;-0.76;100.00;98198.34;4978256;28;103054;-76
2023/01/21 08:13:00;;;;;;;;;16.33;13.33;;;;;-0.79;100.00;98193.31;4972741;28;101956;-76
2023/01/21 08:15:27;;;;;;;;;16.67;15.33;;;;;-0.85;100.00;98201.81;4974611;28;102224;-75
2023/01/21 08:17:55;;;;;;;;;18.33;13.33;;;;;-0.84;100.00;98193.75;4975035;28;102013;-76
2023/01/21 08:20:22;;;;;;;;;15.00;14.00;;;;;-0.75;100.00;98207.97;4950646;28;104309;-75
2023/01/21 08:22:49;;;;;;;;;10.00;10.00;;;;;-0.73;100.00;98206.03;4955126;28;102031;-75
2023/01/21 08:25:17;;;;;;;;;15.67;14.00;;;;;-0.70;100.00;98211.91;4963894;28;102561;-75
2023/01/21 08:27:44;;;;;;;;;15.00;13.00;;;;;-0.70;100.00;98209.25;4953258;28;102925;-75
2023/01/21 08:30:11;;;;;;;;;18.00;13.33;;;;;-0.68;100.00;98209.13;4960857;28;104185;-75
2023/01/21 08:32:38;;;;;;;;;12.67;12.67;;;;;-0.67;100.00;98211.59;4968474;28;102206;-74
2023/01/21 08:35:06;;;;;;;;;16.33;15.33;;;;;-0.67;100.00;98216.06;4972764;28;101991;-74
2023/01/21 08:37:33;;;;;;;;;20.67;18.00;;;;;-0.65;100.00;98219.44;4972421;28;102069;-75
2023/01/21 08:40:00;;;;;;;;;22.33;15.33;;;;;-0.69;100.00;98221.53;4960763;28;108627;-76
2023/01/21 08:42:28;;;;;;;;;18.33;14.67;;;;;-0.57;100.00;98215.09;4953366;28;102205;-75
2023/01/21 08:44:54;;;;;;;;;13.67;12.00;;;;;-0.67;100.00;98206.31;4971020;28;102200;-75
2023/01/21 08:47:21;;;;;;;;;16.67;14.67;;;;;-0.57;100.00;98214.25;4971978;28;102206;-75
2023/01/21 08:49:49;;;;;;;;;19.00;16.00;;;;;-0.64;100.00;98208.69;4972078;28;103777;-75
2023/01/21 08:52:16;;;;;;;;;18.00;15.00;;;;;-0.54;100.00;98212.16;4971869;28;102208;-75
2023/01/21 08:54:43;;;;;;;;;22.67;15.00;;;;;-0.53;100.00;98220.97;4969493;28;102082;-75
2023/01/21 08:57:10;;;;;;;;;20.00;15.33;;;;;-0.54;100.00;98214.00;4972832;28;102110;-75
2023/01/21 08:59:37;;;;;;;;;24.00;19.00;;;;;-0.57;100.00;98222.22;4970164;28;103989;-75
2023/01/21 09:02:04;;;;;;;;;18.33;15.00;;;;;-0.52;100.00;98226.16;4962365;28;102429;-75
2023/01/21 09:04:31;;;;;;;;;17.67;15.00;;;;;-0.38;100.00;98232.84;4958869;28;102172;-77
2023/01/21 09:06:58;;;;;;;;;17.33;14.67;;;;;-0.37;100.00;98231.03;4951001;28;102387;-76
2023/01/21 09:09:25;;;;;;;;;21.33;16.00;;;;;-0.29;100.00;98232.00;4965257;28;104017;-76
2023/01/21 09:11:52;;;;;;;;;21.33;15.67;;;;;-0.42;100.00;98235.91;4962143;28;102299;-76
2023/01/21 09:14:20;;;;;;;;;25.67;20.33;;;;;-0.44;100.00;98230.75;4967312;28;102313;-76
2023/01/21 09:16:48;;;;;;;;;21.33;19.67;;;;;-0.39;100.00;98241.78;4970855;28;102006;-76
2023/01/21 09:19:15;;;;;;;;;31.33;27.33;;;;;-0.34;100.00;98242.19;4972173;28;104185;-76
2023/01/21 09:21:42;;;;;;;;;32.67;20.33;;;;;-0.17;100.00;98240.63;4971357;28;102231;-76
2023/01/21 09:24:09;;;;;;;;;32.33;26.67;;;;;-0.21;99.38;98240.06;4972331;28;102207;-76
2023/01/21 09:26:36;;;;;;;;;25.33;19.00;;;;;-0.18;99.43;98241.63;4964613;28;102501;-77
2023/01/21 09:29:03;;;;;;;;;20.00;16.67;;;;;-0.14;100.00;98245.69;4953664;28;104623;-77
2023/01/21 09:31:30;;;;;;;;;21.67;18.67;;;;;-0.25;98.57;98238.69;4951680;28;102559;-78
2023/01/21 09:34:00;;;;;;;;;20.67;18.00;;;;;-0.07;98.89;98255.56;4961174;28;102270;-77
2023/01/21 09:36:30;;;;;;;;;32.33;26.00;;;;;-0.15;99.10;98255.47;4971105;28;102091;-77
2023/01/21 09:38:58;;;;;;;;;29.33;26.00;;;;;-0.23;99.20;98258.00;4952122;28;103975;-76
2023/01/21 09:41:37;;;;;;;;;22.00;19.67;;;;;-0.15;99.46;98244.84;4950725;28;102393;-77
2023/01/21 09:44:25;;;;;;;;;30.33;24.33;;;;;-0.22;99.03;98248.19;4960873;28;102290;-74
2023/01/21 09:47:13;;;;;;;;;28.33;23.67;;;;;-0.15;98.16;98255.47;4956266;28;102218;-76
2023/01/21 09:49:57;;;;;;;;;22.00;20.00;;;;;-0.01;98.49;98263.00;4963611;28;108625;-76
2023/01/21 09:52:46;;;;;;;;;26.00;22.00;;;;;0.08;97.96;98261.28;4944023;28;104671;-77
2023/01/21 09:55:19;;;;;;;;;30.00;21.67;;;;;0.08;97.38;98261.28;4956978;28;102354;-77
2023/01/21 09:58:13;;;;;;;;;13.33;9.67;;;;;-0.10;97.27;98268.31;4967133;28;102468;-76
2023/01/21 10:00:53;;;;;;;;;40.00;32.67;;;;;-0.08;98.46;98261.88;4958305;28;108557;-77
2023/01/21 10:03:35;;;;;;;;;39.00;29.00;;;;;-0.06;97.75;98259.91;4970925;28;102155;-77
2023/01/21 10:06:26;;;;;;;;;33.33;24.00;;;;;-0.08;97.02;98259.22;4964282;28;102067;-77
2023/01/21 10:09:11;;;;;;;;;26.67;26.00;;;;;0.08;97.22;98260.44;4942751;28;102165;-77
2023/01/21 10:11:47;;;;;;;;;29.33;25.67;;;;;0.04;97.90;98256.41;4959940;28;108769;-76
2023/01/21 10:14:51;;;;;;;;;36.67;30.33;;;;;0.04;96.92;98253.75;4953245;28;102539;-77
2023/01/21 10:17:28;;;;;;;;;30.33;25.33;;;;;-0.02;97.01;98256.00;4968540;28;102080;-77
2023/01/21 10:20:28;;;;;;;;;34.00;28.33;;;;;0.02;97.18;98251.22;4956599;28;102404;-77
2023/01/21 10:23:05;;;;;;;;;30.33;23.00;;;;;-0.06;96.40;98251.09;4947707;28;108340;-77
2023/01/21 10:25:34;;;;;;;;;23.67;19.33;;;;;0.19;97.00;98258.44;4966222;28;102350;-77
2023/01/21 10:28:10;;;;;;;;;39.67;33.00;;;;;0.10;95.82;98258.47;4955481;28;102334;-77
2023/01/21 10:30:41;;;;;;;;;32.00;27.00;;;;;0.24;97.67;98255.34;4969734;28;102388;-78
2023/01/21 10:33:26;;;;;;;;;26.33;22.00;;;;;0.38;94.62;98257.53;4971192;28;104155;-76
2023/01/21 10:36:11;;;;;;;;;32.33;27.67;;;;;0.38;95.19;98265.53;4971117;28;102287;-78
2023/01/21 10:39:10;;;;;;;;;20.33;16.67;;;;;0.56;94.33;98277.06;4963231;28;102280;-78
2023/01/21 10:42:14;;;;;;;;;38.33;28.67;;;;;0.32;94.16;98271.41;4958717;28;102465;-78
2023/01/21 10:44:53;;;;;;;;;27.00;24.00;;;;;0.20;94.10;98269.91;4959100;28;108587;-77
2023/01/21 10:47:37;;;;;;;;;41.33;30.33;;;;;0.12;95.38;98270.66;4958126;28;102187;-77
2023/01/21 10:50:24;;;;;;;;;41.00;35.00;;;;;0.16;94.65;98269.38;4967208;28;102439;-77
2023/01/21 10:53:00;;;;;;;;;34.00;31.00;;;;;0.13;95.38;98266.19;4967890;28;102045;-78
2023/01/21 10:55:56;;;;;;;;;36.00;27.67;;;;;0.38;95.33;98262.88;4959007;28;104282;-78
2023/01/21 10:58:39;;;;;;;;;39.00;30.00;;;;;0.25;94.07;98268.50;4954245;28;102677;-77
2023/01/21 11:01:15;;;;;;;;;48.67;38.00;;;;;0.14;95.18;98270.47;4935500;28;102257;-77
2023/01/21 11:03:46;;;;;;;;;33.67;28.33;;;;;0.13;95.66;98247.56;4958447;28;102112;-78
2023/01/21 11:06:18;;;;;;;;;31.00;23.33;;;;;0.19;95.09;98257.59;4969704;28;103944;-78
2023/01/21 11:08:50;;;;;;;;;37.67;31.00;;;;;0.06;94.37;98257.09;4969680;28;102882;-77
2023/01/21 11:11:26;;;;;;;;;27.67;23.67;;;;;0.14;94.91;98262.50;4969400;28;102246;-78
2023/01/21 11:13:54;;;;;;;;;42.33;31.00;;;;;0.24;94.97;98260.66;4969971;28;101933;-78
2023/01/21 11:16:45;;;;;;;;;30.67;24.00;;;;;0.18;94.57;98256.75;4971523;28;103995;-78
2023/01/21 11:19:25;;;;;;;;;38.00;30.00;;;;;0.22;94.94;98262.66;4971050;28;102175;-77
2023/01/21 11:22:15;;;;;;;;;30.00;26.67;;;;;0.23;94.58;98258.97;4970316;28;102400;-77
2023/01/21 11:24:47;;;;;;;;;25.00;23.00;;;;;0.23;93.95;98248.34;4968316;28;102194;-77
2023/01/21 11:27:40;;;;;;;;;35.00;30.00;;;;;0.16;94.33;98258.75;4945509;28;104247;-77
2023/01/21 11:30:28;;;;;;;;;34.33;27.00;;;;;0.27;95.17;98255.09;4956635;28;102322;-77